Aeroporto :
LOGIN :

Iscrizione | Disclaimer

   EN    FR    IT 

 










Sommario :    VFR   VFR Marginale   IFR   IFR Intensivo   IFR Molto Intensivo
Visibilità : 
Base nubi : 
>= 8 km
>= 3000ft
5 / 8 km
1000 / 3000 ft
1500m / 5 km
500 / 1000 ft
800 / 1500m
200 / 500 ft
< 800m
< 200 ft
Simboli :   Temporali  Nebbia  Neve Forte  Precipitazioni Forti  Vento > 20 kt
SIGMETs :   Varie  Temporali  Ghiacco  Turbolenza  Onda orograficha  Ceneri Vulcaniche






- Altitudine del aeroporto : 19 ft
- Codice IATA : LCY


EGLC - London City

ULTIMO METAR :
  • 271750Z AUTO 30012KT 9999 NCD 07/M02 Q1009

METARs OBSOLETI :
  • 271720Z AUTO 30014KT 9999 NCD 08/M02 Q1008
  • 271650Z AUTO 30015KT 9999 NCD 08/M02 Q1007
  • 271620Z AUTO 30018G28KT 9999 FEW047 08/M02 Q1006
  • 271550Z AUTO 30019G30KT 9999 SCT045 08/M02 Q1005
  • 271520Z AUTO 30016G28KT 280V340 9999 BKN045 08/M01 Q1005

TAF TAF EGLC
Valido dal 27 a 18 ore il 27 a 21 ore UTC


271707Z 2718/2721 30014KT 9999 FEW040
ATIS : +44 20 7646 0224



MetMap, La meteo Aeronautica in un colpo d'occhio ! - Copyright ORBIFLY Dicembre 2007 - Disclaimer

ORBIFLY MET'MAP TEAM :

Programmazione e sviluppo : Alexandra Zaïnal
Concezione : Baudouin d'Aumeries
Aiuto per la programmazione : Marc-Olivier Méhu
Supporto tecnico e logistico : Manuel Goepfert
Aiuto per la traduzione : Arnaldo La Scala

Contatto : metmap@orbifly.com




FONTI E CREDITI :

   NOAA